createdAt,value
2017-03-29T00:00:00.287Z,0
2017-03-29T00:01:10.558Z,0
2017-03-29T00:02:20.827Z,0
2017-03-29T00:03:31.093Z,0
2017-03-29T00:04:41.377Z,0
2017-03-29T00:05:51.591Z,0
2017-03-29T00:07:01.557Z,0
2017-03-29T00:08:11.842Z,0
2017-03-29T00:09:22.112Z,0
2017-03-29T00:10:32.432Z,0
2017-03-29T00:11:42.958Z,0
2017-03-29T00:12:53.246Z,0
2017-03-29T00:14:03.212Z,0
2017-03-29T00:15:13.489Z,0
2017-03-29T00:16:23.765Z,0
2017-03-29T00:17:33.975Z,0
2017-03-29T00:18:43.935Z,0
2017-03-29T00:19:54.215Z,0
2017-03-29T00:21:05.046Z,0
2017-03-29T00:22:15.322Z,0
2017-03-29T00:23:25.854Z,0
2017-03-29T00:24:35.809Z,0
2017-03-29T00:25:45.489Z,0
2017-03-29T00:26:55.762Z,0
2017-03-29T00:28:05.724Z,0
2017-03-29T00:29:15.657Z,0
2017-03-29T00:30:25.934Z,0
2017-03-29T00:31:35.897Z,0
2017-03-29T00:32:45.543Z,0
2017-03-29T00:33:55.507Z,0
2017-03-29T00:35:05.722Z,0
2017-03-29T00:36:15.995Z,0
2017-03-29T00:37:25.330Z,0
2017-03-29T00:38:35.291Z,0
2017-03-29T00:39:45.566Z,0
2017-03-29T00:40:56.142Z,0
2017-03-29T00:42:06.414Z,0
2017-03-29T00:43:16.697Z,0
2017-03-29T00:44:26.977Z,0
2017-03-29T00:45:37.259Z,0
2017-03-29T00:46:47.786Z,0
2017-03-29T00:47:58.059Z,0
2017-03-29T00:49:08.023Z,0
2017-03-29T00:50:18.292Z,0
2017-03-29T00:51:28.253Z,0
2017-03-29T00:52:38.483Z,0
2017-03-29T00:53:48.755Z,0
2017-03-29T00:54:59.030Z,0
2017-03-29T00:56:08.989Z,0
2017-03-29T00:57:18.631Z,0
2017-03-29T00:58:28.890Z,0
2017-03-29T00:59:38.855Z,0
2017-03-29T01:00:49.127Z,0
2017-03-29T01:01:59.089Z,0
2017-03-29T01:03:09.358Z,0
2017-03-29T01:04:19.938Z,0
2017-03-29T01:05:29.897Z,0
2017-03-29T01:06:40.169Z,0
2017-03-29T01:07:50.130Z,0
2017-03-29T01:09:00.406Z,0
2017-03-29T01:10:10.361Z,0
2017-03-29T01:11:20.317Z,0
2017-03-29T01:12:29.655Z,0
2017-03-29T01:13:39.944Z,0
2017-03-29T01:14:50.209Z,0
2017-03-29T01:16:00.735Z,0
2017-03-29T01:17:11.020Z,0
2017-03-29T01:18:20.991Z,0
2017-03-29T01:19:30.636Z,0
2017-03-29T01:20:40.918Z,0
2017-03-29T01:21:51.490Z,0
2017-03-29T01:23:01.137Z,0
2017-03-29T01:24:11.106Z,0
2017-03-29T01:25:21.065Z,0
2017-03-29T01:26:31.337Z,0
2017-03-29T01:27:41.552Z,0
2017-03-29T01:28:51.829Z,0
2017-03-29T01:30:02.105Z,0
2017-03-29T01:31:12.072Z,0
2017-03-29T01:32:22.492Z,0
2017-03-29T01:33:32.406Z,0
2017-03-29T01:34:42.368Z,0
2017-03-29T01:35:52.645Z,0
2017-03-29T01:37:02.296Z,0
2017-03-29T01:38:12.565Z,0
2017-03-29T01:39:23.092Z,0
2017-03-29T01:40:33.383Z,0
2017-03-29T01:41:43.666Z,0
2017-03-29T01:42:53.934Z,0
2017-03-29T01:44:03.908Z,0
2017-03-29T01:45:14.127Z,0
2017-03-29T01:46:24.398Z,0
2017-03-29T01:47:34.045Z,0
2017-03-29T01:48:43.703Z,0
2017-03-29T01:49:53.357Z,0
2017-03-29T01:51:03.626Z,0
2017-03-29T01:52:13.901Z,0
2017-03-29T01:53:23.866Z,0
2017-03-29T01:54:34.157Z,0
2017-03-29T01:55:44.431Z,0
2017-03-29T01:56:54.333Z,0
2017-03-29T01:58:04.609Z,0
2017-03-29T01:59:14.877Z,0
2017-03-29T02:00:25.158Z,0
2017-03-29T02:01:35.434Z,0
2017-03-29T02:02:45.655Z,0
2017-03-29T02:03:55.305Z,0
2017-03-29T02:05:05.269Z,0
2017-03-29T02:06:15.544Z,0
2017-03-29T02:07:25.818Z,0
2017-03-29T02:08:36.041Z,0
2017-03-29T02:09:45.689Z,0
2017-03-29T02:10:55.646Z,0
2017-03-29T02:12:05.924Z,0
2017-03-29T02:13:16.188Z,0
2017-03-29T02:14:26.756Z,0
2017-03-29T02:15:36.415Z,0
2017-03-29T02:16:46.071Z,0
2017-03-29T02:17:56.032Z,0
2017-03-29T02:19:06.535Z,0
2017-03-29T02:20:17.066Z,0
2017-03-29T02:21:27.465Z,0
2017-03-29T02:22:37.738Z,0
2017-03-29T02:23:47.694Z,0
2017-03-29T02:24:57.344Z,0
2017-03-29T02:26:07.872Z,0
2017-03-29T02:27:17.842Z,0
2017-03-29T02:28:28.116Z,0
2017-03-29T02:29:38.075Z,0
2017-03-29T02:30:47.745Z,0
2017-03-29T02:31:58.263Z,0
2017-03-29T02:33:08.552Z,0
2017-03-29T02:34:19.050Z,0
2017-03-29T02:35:28.700Z,0
2017-03-29T02:36:38.966Z,0
2017-03-29T02:37:48.866Z,0
2017-03-29T02:38:59.144Z,0
2017-03-29T02:40:09.415Z,0
2017-03-29T02:41:19.681Z,0
2017-03-29T02:42:29.639Z,0
2017-03-29T02:43:39.590Z,0
2017-03-29T02:44:49.858Z,0
2017-03-29T02:46:00.131Z,0
2017-03-29T02:47:10.399Z,0
2017-03-29T02:48:20.376Z,0
2017-03-29T03:02:26.267Z,0
2017-03-29T03:03:36.561Z,0
2017-03-29T03:04:46.523Z,0
2017-03-29T03:05:56.804Z,0
2017-03-29T03:07:07.080Z,0
2017-03-29T03:08:17.662Z,0
2017-03-29T03:09:27.335Z,0
2017-03-29T03:10:37.619Z,0
2017-03-29T03:11:47.891Z,0
2017-03-29T03:12:58.163Z,0
2017-03-29T03:14:08.687Z,0
2017-03-29T03:15:18.650Z,0
2017-03-29T03:16:28.929Z,0
2017-03-29T03:17:38.903Z,0
2017-03-29T03:18:48.877Z,0
2017-03-29T03:19:59.402Z,0
2017-03-29T03:21:09.685Z,0
2017-03-29T03:22:19.675Z,0
2017-03-29T03:23:29.941Z,0
2017-03-29T03:24:39.598Z,0
2017-03-29T03:25:50.112Z,0
2017-03-29T03:27:00.074Z,0
2017-03-29T03:28:10.355Z,0
2017-03-29T03:29:20.650Z,0
2017-03-29T03:30:30.920Z,0
2017-03-29T03:31:41.132Z,0
2017-03-29T03:32:51.406Z,0
2017-03-29T03:34:01.686Z,0
2017-03-29T03:35:11.964Z,0
2017-03-29T03:36:22.263Z,0
2017-03-29T03:37:32.780Z,0
2017-03-29T03:38:42.748Z,0
2017-03-29T03:39:53.014Z,0
2017-03-29T03:41:02.682Z,0
2017-03-29T03:42:12.963Z,0
2017-03-29T03:43:23.546Z,0
2017-03-29T03:44:33.500Z,0
2017-03-29T03:45:43.466Z,0
2017-03-29T03:46:53.450Z,0
2017-03-29T03:48:03.418Z,0
2017-03-29T03:49:13.945Z,0
2017-03-29T03:50:24.221Z,0
2017-03-29T03:51:34.194Z,0
2017-03-29T03:52:44.169Z,0
2017-03-29T03:53:54.439Z,0
2017-03-29T03:55:04.653Z,0
2017-03-29T03:56:14.624Z,0
2017-03-29T03:57:24.900Z,0
2017-03-29T03:58:35.169Z,0
2017-03-29T03:59:45.545Z,0
2017-03-29T04:00:56.079Z,0
2017-03-29T04:02:06.353Z,0
2017-03-29T04:03:16.630Z,0
2017-03-29T04:04:26.601Z,0
2017-03-29T04:05:36.875Z,0
2017-03-29T04:06:47.409Z,0
2017-03-29T04:07:57.695Z,0
2017-03-29T04:09:07.973Z,0
2017-03-29T04:10:17.940Z,0
2017-03-29T04:11:28.211Z,0
2017-03-29T04:12:38.739Z,0
2017-03-29T04:13:49.017Z,0
2017-03-29T04:14:59.293Z,0
2017-03-29T04:16:09.565Z,0
2017-03-29T04:17:19.520Z,0
2017-03-29T04:18:30.039Z,0
2017-03-29T04:19:40.309Z,0
2017-03-29T04:20:50.303Z,0
2017-03-29T04:22:00.579Z,0
2017-03-29T04:23:10.835Z,0
2017-03-29T04:24:20.737Z,0
2017-03-29T04:25:31.012Z,0
2017-03-29T04:26:41.292Z,0
2017-03-29T04:27:51.564Z,0
2017-03-29T04:29:01.524Z,0
2017-03-29T04:30:12.114Z,0
2017-03-29T04:31:22.391Z,0
2017-03-29T04:32:32.657Z,0
2017-03-29T04:33:42.629Z,0
2017-03-29T04:34:52.909Z,0
2017-03-29T04:36:03.478Z,0
2017-03-29T04:37:13.530Z,0
2017-03-29T04:38:23.801Z,0
2017-03-29T04:39:34.088Z,0
2017-03-29T04:40:44.352Z,0
2017-03-29T04:41:54.882Z,0
2017-03-29T04:43:04.850Z,0
2017-03-29T04:44:14.805Z,0
2017-03-29T04:45:25.088Z,0
2017-03-29T04:46:35.045Z,0
2017-03-29T04:47:45.258Z,0
2017-03-29T04:48:55.230Z,0
2017-03-29T04:50:05.198Z,0
2017-03-29T04:51:15.468Z,0
2017-03-29T04:52:25.438Z,0
2017-03-29T04:53:35.657Z,0
2017-03-29T04:54:45.932Z,5
2017-03-29T04:55:55.897Z,5
2017-03-29T04:57:06.183Z,5
2017-03-29T04:58:16.148Z,5
2017-03-29T04:59:26.674Z,5
2017-03-29T05:00:36.645Z,5
2017-03-29T05:01:46.935Z,5
2017-03-29T05:02:56.899Z,5
2017-03-29T05:04:07.168Z,5
2017-03-29T05:05:17.806Z,5
2017-03-29T05:06:28.137Z,5
2017-03-29T05:07:38.417Z,5
2017-03-29T05:08:48.700Z,10
2017-03-29T05:09:58.669Z,10
2017-03-29T05:11:09.301Z,10
2017-03-29T05:12:19.570Z,10
2017-03-29T05:13:29.858Z,10
2017-03-29T05:14:40.140Z,10
2017-03-29T05:15:50.114Z,10
2017-03-29T05:17:00.732Z,10
2017-03-29T05:18:11.022Z,10
2017-03-29T05:19:21.300Z,10
2017-03-29T05:20:30.945Z,10
2017-03-29T05:21:41.222Z,10
2017-03-29T05:22:51.852Z,10
2017-03-29T05:24:01.819Z,10
2017-03-29T05:25:11.792Z,10
2017-03-29T05:26:22.089Z,10
2017-03-29T05:27:32.075Z,10
2017-03-29T05:28:42.303Z,10
2017-03-29T05:29:52.284Z,10
2017-03-29T05:31:02.575Z,10
2017-03-29T05:32:12.870Z,10
2017-03-29T05:33:23.166Z,10
2017-03-29T05:34:33.724Z,10
2017-03-29T05:35:44.017Z,10
2017-03-29T05:36:54.308Z,10
2017-03-29T05:38:04.592Z,10
2017-03-29T05:39:14.860Z,10
2017-03-29T05:40:24.825Z,10
2017-03-29T05:41:35.115Z,10
2017-03-29T05:42:44.773Z,10
2017-03-29T05:43:55.070Z,5
2017-03-29T05:45:05.344Z,10
2017-03-29T05:46:15.241Z,10
2017-03-29T05:47:25.514Z,10
2017-03-29T05:48:35.805Z,10
2017-03-29T05:49:46.232Z,15
2017-03-29T05:50:56.514Z,20
2017-03-29T05:52:07.048Z,20
2017-03-29T05:53:17.008Z,25
2017-03-29T05:54:27.307Z,25
2017-03-29T05:55:37.588Z,25
2017-03-29T05:56:47.562Z,30
2017-03-29T05:57:58.143Z,30
2017-03-29T05:59:08.158Z,25
2017-03-29T06:00:18.129Z,25
2017-03-29T06:01:28.411Z,30
2017-03-29T06:02:38.799Z,25
2017-03-29T06:03:49.318Z,25
2017-03-29T06:04:59.595Z,25
2017-03-29T06:06:09.875Z,25
2017-03-29T06:07:19.849Z,30
2017-03-29T06:08:29.521Z,30
2017-03-29T06:09:40.064Z,30
2017-03-29T06:10:50.044Z,30
2017-03-29T06:12:00.320Z,35
2017-03-29T06:13:10.607Z,35
2017-03-29T06:14:21.127Z,45
2017-03-29T06:15:31.780Z,50
2017-03-29T06:16:42.080Z,55
2017-03-29T06:17:52.065Z,60
2017-03-29T06:19:02.358Z,60
2017-03-29T06:20:12.644Z,60
2017-03-29T06:21:23.182Z,55
2017-03-29T06:22:33.486Z,50
2017-03-29T06:23:43.804Z,50
2017-03-29T06:24:54.106Z,55
2017-03-29T06:26:04.413Z,55
2017-03-29T06:27:14.742Z,60
2017-03-29T06:28:24.723Z,65
2017-03-29T06:29:35.029Z,65
2017-03-29T06:30:45.330Z,65
2017-03-29T06:31:55.614Z,70
2017-03-29T06:33:06.136Z,70
2017-03-29T06:34:16.419Z,70
2017-03-29T06:35:26.711Z,75
2017-03-29T06:36:36.979Z,75
2017-03-29T06:37:46.999Z,75
2017-03-29T06:38:57.513Z,75
2017-03-29T06:40:07.501Z,80
2017-03-29T06:41:17.805Z,85
2017-03-29T06:42:28.088Z,90
2017-03-29T06:43:38.360Z,95
2017-03-29T06:44:48.739Z,100
2017-03-29T06:45:58.731Z,105
2017-03-29T06:47:09.698Z,110
2017-03-29T06:48:20.184Z,115
2017-03-29T06:49:30.472Z,120
2017-03-29T06:50:41.004Z,120
2017-03-29T06:51:51.319Z,115
2017-03-29T06:53:01.591Z,105
2017-03-29T06:54:11.875Z,100
2017-03-29T06:55:22.182Z,100
2017-03-29T06:56:32.552Z,95
2017-03-29T06:57:42.886Z,100
2017-03-29T06:58:53.809Z,95
2017-03-29T07:00:06.249Z,100
2017-03-29T07:01:16.498Z,105
2017-03-29T07:02:26.769Z,110
2017-03-29T07:03:37.090Z,110
2017-03-29T07:04:47.844Z,125
2017-03-29T07:05:58.236Z,125
2017-03-29T07:07:08.217Z,120
2017-03-29T07:08:18.464Z,115
2017-03-29T07:09:28.789Z,115
2017-03-29T07:10:39.088Z,110
2017-03-29T07:11:49.439Z,110
2017-03-29T07:12:59.723Z,115
2017-03-29T07:14:10.275Z,115
2017-03-29T07:15:20.247Z,110
2017-03-29T07:16:30.622Z,105
2017-03-29T07:17:40.926Z,105
2017-03-29T07:18:50.917Z,105
2017-03-29T07:20:01.303Z,105
2017-03-29T07:21:11.798Z,105
2017-03-29T07:22:21.473Z,105
2017-03-29T07:23:31.766Z,105
2017-03-29T07:24:42.087Z,100
2017-03-29T07:25:52.458Z,105
2017-03-29T07:27:02.745Z,100
2017-03-29T07:28:12.723Z,100
2017-03-29T07:29:23.021Z,100
2017-03-29T07:30:33.343Z,100
2017-03-29T07:31:44.039Z,100
2017-03-29T07:32:54.351Z,95
2017-03-29T07:34:04.650Z,90
2017-03-29T07:35:14.945Z,90
2017-03-29T07:36:24.610Z,95
2017-03-29T07:37:35.258Z,105
2017-03-29T07:38:45.549Z,115
2017-03-29T07:39:55.558Z,115
2017-03-29T07:41:05.849Z,110
2017-03-29T07:42:16.139Z,115
2017-03-29T07:43:26.500Z,110
2017-03-29T07:44:36.784Z,110
2017-03-29T07:45:47.085Z,110
2017-03-29T07:46:57.073Z,115
2017-03-29T07:48:07.381Z,120
2017-03-29T07:49:17.728Z,120
2017-03-29T07:50:28.013Z,125
2017-03-29T07:51:38.321Z,130
2017-03-29T07:52:48.623Z,125
2017-03-29T07:53:58.612Z,120
2017-03-29T07:55:09.553Z,115
2017-03-29T07:56:19.844Z,115
2017-03-29T07:57:29.815Z,115
2017-03-29T07:58:40.104Z,115
2017-03-29T07:59:50.087Z,115
2017-03-29T08:01:00.415Z,105
2017-03-29T08:02:10.714Z,105
2017-03-29T08:03:20.408Z,115
2017-03-29T08:04:30.403Z,115
2017-03-29T08:05:40.708Z,120
2017-03-29T08:06:51.456Z,120
2017-03-29T08:08:01.455Z,115
2017-03-29T08:09:11.790Z,115
2017-03-29T08:10:22.076Z,115
2017-03-29T08:11:32.387Z,115
2017-03-29T08:12:42.997Z,115
2017-03-29T08:13:52.977Z,115
2017-03-29T08:15:03.002Z,115
2017-03-29T08:16:13.281Z,110
2017-03-29T08:17:23.576Z,115
2017-03-29T08:18:34.188Z,115
2017-03-29T08:19:44.488Z,115
2017-03-29T08:20:54.485Z,110
2017-03-29T08:22:04.787Z,105
2017-03-29T08:23:15.072Z,110
2017-03-29T08:24:25.726Z,115
2017-03-29T08:25:36.024Z,110
2017-03-29T08:26:45.706Z,105
2017-03-29T08:27:56.014Z,105
2017-03-29T08:29:06.294Z,100
2017-03-29T08:30:16.533Z,100
2017-03-29T08:31:26.505Z,90
2017-03-29T08:32:36.492Z,90
2017-03-29T08:33:46.464Z,90
2017-03-29T08:34:56.763Z,90
2017-03-29T08:36:07.351Z,95
2017-03-29T08:37:17.325Z,105
2017-03-29T08:38:27.616Z,110
2017-03-29T08:39:37.908Z,115
2017-03-29T08:40:47.908Z,115
2017-03-29T08:41:58.636Z,115
2017-03-29T08:43:08.928Z,110
2017-03-29T08:44:19.292Z,105
2017-03-29T08:45:29.576Z,100
2017-03-29T08:46:39.873Z,100
2017-03-29T08:47:50.510Z,105
2017-03-29T08:49:00.799Z,110
2017-03-29T08:50:11.104Z,120
2017-03-29T08:51:21.388Z,125
2017-03-29T08:52:31.712Z,130
2017-03-29T08:53:42.106Z,130
2017-03-29T08:54:52.392Z,125
2017-03-29T08:56:02.707Z,125
2017-03-29T08:57:13.001Z,130
2017-03-29T08:58:23.301Z,135
2017-03-29T08:59:33.839Z,130
2017-03-29T09:00:44.144Z,135
2017-03-29T09:01:54.432Z,135
2017-03-29T09:03:04.766Z,135
2017-03-29T09:04:14.732Z,140
2017-03-29T09:05:25.262Z,145
2017-03-29T09:06:35.545Z,150
2017-03-29T09:07:45.515Z,145
2017-03-29T09:08:55.508Z,140
2017-03-29T09:10:05.815Z,140
2017-03-29T09:11:16.355Z,145
2017-03-29T09:12:26.324Z,150
2017-03-29T09:13:36.609Z,160
2017-03-29T09:14:46.900Z,165
2017-03-29T09:15:56.909Z,165
2017-03-29T09:17:07.227Z,160
2017-03-29T09:18:16.899Z,155
2017-03-29T09:19:27.181Z,150
2017-03-29T09:20:37.153Z,155
2017-03-29T09:21:47.151Z,150
2017-03-29T09:22:57.692Z,155
2017-03-29T09:24:07.345Z,165
2017-03-29T09:25:17.651Z,165
2017-03-29T09:26:27.662Z,170
2017-03-29T09:27:38.015Z,170
2017-03-29T09:28:48.610Z,175
2017-03-29T09:29:58.917Z,170
2017-03-29T09:31:09.459Z,165
2017-03-29T09:32:19.442Z,165
2017-03-29T09:33:29.443Z,160
2017-03-29T09:34:39.756Z,155
2017-03-29T09:35:50.051Z,145
2017-03-29T09:37:00.342Z,140
2017-03-29T09:38:10.311Z,130
2017-03-29T09:39:20.289Z,125
2017-03-29T09:40:30.932Z,130
2017-03-29T09:41:41.224Z,135
2017-03-29T09:42:51.524Z,150
2017-03-29T09:44:01.191Z,155
2017-03-29T09:45:11.495Z,155
2017-03-29T09:46:22.040Z,160
2017-03-29T09:47:32.338Z,160
2017-03-29T09:48:42.065Z,170
2017-03-29T09:49:52.060Z,175
2017-03-29T09:51:02.373Z,170
2017-03-29T09:52:12.668Z,170
2017-03-29T09:53:22.664Z,170
2017-03-29T09:54:32.638Z,155
2017-03-29T09:55:42.932Z,155
2017-03-29T09:56:53.215Z,180
2017-03-29T09:58:03.517Z,200
2017-03-29T09:59:13.822Z,175
2017-03-29T10:00:23.802Z,135
2017-03-29T10:01:34.107Z,120
2017-03-29T10:02:44.392Z,80
2017-03-29T10:03:54.626Z,40
2017-03-29T10:05:04.905Z,60
2017-03-29T10:06:15.222Z,65
2017-03-29T10:07:25.523Z,90
2017-03-29T10:08:35.831Z,110
2017-03-29T10:09:46.166Z,125
2017-03-29T10:10:56.448Z,115
2017-03-29T10:12:06.739Z,125
2017-03-29T10:13:17.014Z,130
2017-03-29T10:14:26.997Z,120
2017-03-29T10:15:37.654Z,115
2017-03-29T10:16:48.006Z,120
2017-03-29T10:17:57.998Z,130
2017-03-29T10:19:08.287Z,95
2017-03-29T10:20:18.587Z,75
2017-03-29T10:21:29.252Z,55
2017-03-29T10:22:39.286Z,60
2017-03-29T10:23:49.596Z,85
2017-03-29T10:24:59.969Z,110
2017-03-29T10:26:10.303Z,125
2017-03-29T10:27:21.021Z,130
2017-03-29T10:28:31.306Z,135
2017-03-29T10:29:41.294Z,130
2017-03-29T10:30:51.580Z,115
2017-03-29T10:32:01.580Z,120
2017-03-29T10:33:12.259Z,130
2017-03-29T10:34:22.569Z,145
2017-03-29T10:35:32.888Z,165
2017-03-29T10:36:43.212Z,170
2017-03-29T10:37:53.495Z,155
2017-03-29T10:39:04.220Z,150
2017-03-29T10:40:14.508Z,150
2017-03-29T10:41:24.794Z,125
2017-03-29T10:42:34.777Z,115
2017-03-29T10:43:44.761Z,140
2017-03-29T10:44:55.325Z,140
2017-03-29T10:46:05.666Z,140
2017-03-29T10:47:15.636Z,150
2017-03-29T10:48:25.606Z,135
2017-03-29T10:49:35.887Z,155
2017-03-29T10:50:46.127Z,120
2017-03-29T10:51:56.411Z,90
2017-03-29T10:53:06.418Z,85
2017-03-29T10:54:16.829Z,95
2017-03-29T10:55:27.149Z,95
2017-03-29T10:56:37.823Z,65
2017-03-29T10:57:48.121Z,45
2017-03-29T10:58:58.431Z,55
2017-03-29T11:00:08.966Z,40
2017-03-29T11:01:19.261Z,35
2017-03-29T11:02:29.167Z,35
2017-03-29T11:03:39.154Z,45
2017-03-29T11:04:49.135Z,50
2017-03-29T11:05:59.421Z,60
2017-03-29T11:07:09.396Z,85
2017-03-29T11:08:20.044Z,110
2017-03-29T11:09:30.016Z,90
2017-03-29T11:10:40.011Z,100
2017-03-29T11:11:49.985Z,110
2017-03-29T11:12:59.983Z,85
2017-03-29T11:14:10.628Z,90
2017-03-29T11:15:20.935Z,70
2017-03-29T11:16:30.929Z,85
2017-03-29T11:17:40.926Z,75
2017-03-29T11:18:51.218Z,80
2017-03-29T11:20:01.680Z,75
2017-03-29T11:21:11.981Z,50
2017-03-29T11:22:22.285Z,70
2017-03-29T11:23:32.575Z,85
2017-03-29T11:24:42.899Z,50
2017-03-29T11:25:53.134Z,60
2017-03-29T11:27:03.429Z,90
2017-03-29T11:28:13.723Z,100
2017-03-29T11:29:23.708Z,95
2017-03-29T11:30:33.993Z,85
2017-03-29T11:31:44.018Z,75
2017-03-29T11:32:54.006Z,80
2017-03-29T11:34:04.330Z,80
2017-03-29T11:35:14.640Z,100
2017-03-29T11:36:24.951Z,105
2017-03-29T11:37:35.284Z,110
2017-03-29T11:38:45.567Z,115
2017-03-29T11:39:56.096Z,115
2017-03-29T11:41:06.393Z,115
2017-03-29T11:42:16.709Z,115
2017-03-29T11:43:26.999Z,125
2017-03-29T11:44:37.307Z,125
2017-03-29T11:45:47.627Z,125
2017-03-29T11:46:57.923Z,125
2017-03-29T11:48:08.287Z,135
2017-03-29T11:49:18.858Z,135
2017-03-29T11:50:28.834Z,130
2017-03-29T11:51:39.132Z,125
2017-03-29T11:52:49.446Z,120
2017-03-29T11:53:59.780Z,115
2017-03-29T11:55:10.066Z,100
2017-03-29T11:56:20.099Z,95
2017-03-29T11:57:30.616Z,115
2017-03-29T11:58:39.696Z,110
2017-03-29T11:59:50.007Z,105
2017-03-29T12:01:00.596Z,105
2017-03-29T12:02:10.874Z,110
2017-03-29T12:03:21.214Z,115
2017-03-29T12:04:31.524Z,130
2017-03-29T12:05:41.512Z,125
2017-03-29T12:06:51.849Z,135
2017-03-29T12:08:02.129Z,135
2017-03-29T12:09:12.422Z,130
2017-03-29T12:10:22.756Z,125
2017-03-29T12:11:32.739Z,95
2017-03-29T12:12:43.405Z,95
2017-03-29T12:13:53.700Z,105
2017-03-29T12:15:03.978Z,125
2017-03-29T12:16:14.269Z,120
2017-03-29T12:17:24.257Z,100
2017-03-29T12:18:34.576Z,100
2017-03-29T12:19:44.557Z,105
2017-03-29T12:20:54.856Z,95
2017-03-29T12:22:04.839Z,105
2017-03-29T12:23:14.852Z,100
2017-03-29T12:24:25.750Z,95
2017-03-29T12:25:36.081Z,105
2017-03-29T12:26:46.069Z,105
2017-03-29T12:27:56.041Z,105
2017-03-29T12:29:06.351Z,130
2017-03-29T12:30:16.900Z,110
2017-03-29T12:31:27.211Z,80
2017-03-29T12:32:37.494Z,95
2017-03-29T12:33:47.779Z,95
2017-03-29T12:34:58.065Z,95
2017-03-29T12:36:08.602Z,90
2017-03-29T12:37:18.985Z,85
2017-03-29T12:38:28.638Z,75
2017-03-29T12:39:38.918Z,70
2017-03-29T12:40:49.193Z,70
2017-03-29T12:41:59.837Z,55
2017-03-29T12:43:10.170Z,50
2017-03-29T12:44:20.472Z,50
2017-03-29T12:45:30.773Z,60
2017-03-29T12:46:40.750Z,60
2017-03-29T12:47:51.407Z,70
2017-03-29T12:49:01.700Z,65
2017-03-29T12:50:11.982Z,75
2017-03-29T12:51:22.293Z,75
2017-03-29T12:52:32.579Z,90
2017-03-29T12:53:42.909Z,105
2017-03-29T12:54:53.221Z,115
2017-03-29T12:56:03.506Z,115
2017-03-29T12:57:13.803Z,90
2017-03-29T12:58:24.094Z,85
2017-03-29T12:59:34.483Z,105
2017-03-29T13:00:44.776Z,115
2017-03-29T13:01:55.086Z,120
2017-03-29T13:03:05.060Z,125
2017-03-29T13:04:15.360Z,110
2017-03-29T13:05:25.998Z,105
2017-03-29T13:06:36.282Z,100
2017-03-29T13:07:46.002Z,90
2017-03-29T13:08:55.974Z,90
2017-03-29T13:10:06.271Z,90
2017-03-29T13:11:16.911Z,90
2017-03-29T13:12:27.199Z,85
2017-03-29T13:13:36.871Z,85
2017-03-29T13:14:47.154Z,80
2017-03-29T13:15:57.435Z,65
2017-03-29T13:17:08.084Z,65
2017-03-29T13:18:18.077Z,55
2017-03-29T13:19:28.066Z,35
2017-03-29T13:20:38.043Z,35
2017-03-29T13:21:48.010Z,40
2017-03-29T13:22:58.646Z,40
2017-03-29T13:24:08.937Z,50
2017-03-29T13:25:19.220Z,60
2017-03-29T13:26:29.206Z,45
2017-03-29T13:27:39.516Z,50
2017-03-29T13:28:50.144Z,60
2017-03-29T13:30:00.437Z,60
2017-03-29T13:31:10.510Z,55
2017-03-29T13:32:20.798Z,55
2017-03-29T13:33:31.078Z,60
2017-03-29T13:34:41.415Z,60
2017-03-29T13:35:51.704Z,60
2017-03-29T13:37:01.678Z,55
2017-03-29T13:38:11.965Z,50
2017-03-29T13:39:21.628Z,45
2017-03-29T13:40:32.325Z,50
2017-03-29T13:41:42.314Z,55
2017-03-29T13:42:52.308Z,50
2017-03-29T13:44:02.278Z,50
2017-03-29T13:45:12.566Z,65
2017-03-29T13:46:23.198Z,70
2017-03-29T13:47:33.490Z,75
2017-03-29T13:48:43.453Z,75
2017-03-29T13:49:53.750Z,75
2017-03-29T13:51:04.045Z,85
2017-03-29T13:52:14.695Z,90
2017-03-29T13:53:24.991Z,90
2017-03-29T13:54:34.971Z,85
2017-03-29T13:55:45.258Z,70
2017-03-29T13:56:55.542Z,70
2017-03-29T13:58:06.198Z,65
2017-03-29T13:59:16.179Z,65
2017-03-29T14:00:26.475Z,70
2017-03-29T14:01:36.466Z,70
2017-03-29T14:02:46.754Z,75
2017-03-29T14:03:57.071Z,75
2017-03-29T14:05:07.344Z,75
2017-03-29T14:06:17.660Z,75
2017-03-29T14:07:27.948Z,80
2017-03-29T14:08:38.239Z,70
2017-03-29T14:09:48.886Z,65
2017-03-29T14:10:59.181Z,60
2017-03-29T14:12:09.469Z,60
2017-03-29T14:13:19.743Z,70
2017-03-29T14:14:29.741Z,70
2017-03-29T14:15:40.369Z,65
2017-03-29T14:16:50.645Z,70
2017-03-29T14:18:00.925Z,75
2017-03-29T14:19:10.899Z,75
2017-03-29T14:20:21.186Z,80
2017-03-29T14:21:31.836Z,80
2017-03-29T14:22:42.114Z,85
2017-03-29T14:23:52.409Z,90
2017-03-29T14:25:02.382Z,85
2017-03-29T14:26:12.699Z,90
2017-03-29T14:27:23.347Z,85
2017-03-29T14:28:33.646Z,80
2017-03-29T14:29:43.936Z,85
2017-03-29T14:30:55.061Z,85
2017-03-29T14:32:05.396Z,85
2017-03-29T14:33:15.724Z,85
2017-03-29T14:34:26.024Z,85
2017-03-29T14:35:36.316Z,85
2017-03-29T14:36:46.610Z,75
2017-03-29T14:37:56.897Z,95
2017-03-29T14:39:07.561Z,95
2017-03-29T14:40:17.550Z,90
2017-03-29T14:41:27.526Z,90
2017-03-29T14:42:37.820Z,90
2017-03-29T14:43:48.118Z,85
2017-03-29T14:44:58.766Z,90
2017-03-29T14:46:09.075Z,80
2017-03-29T14:47:19.063Z,75
2017-03-29T14:48:29.343Z,80
2017-03-29T14:49:39.326Z,80
2017-03-29T14:50:49.976Z,80
2017-03-29T14:52:00.281Z,75
2017-03-29T14:53:10.584Z,70
2017-03-29T14:54:20.870Z,55
2017-03-29T14:55:31.166Z,70
2017-03-29T14:56:41.498Z,80
2017-03-29T14:57:51.818Z,75
2017-03-29T14:59:02.142Z,75
2017-03-29T15:00:12.440Z,55
2017-03-29T15:01:22.124Z,45
2017-03-29T15:02:32.765Z,45
2017-03-29T15:03:43.080Z,45
2017-03-29T15:04:53.977Z,45
2017-03-29T15:06:04.297Z,60
2017-03-29T15:07:14.605Z,55
2017-03-29T15:08:24.741Z,40
2017-03-29T15:09:34.728Z,40
2017-03-29T15:10:45.036Z,40
2017-03-29T15:11:55.427Z,40
2017-03-29T15:13:05.447Z,40
2017-03-29T15:14:15.802Z,35
2017-03-29T15:15:26.116Z,30
2017-03-29T15:16:36.445Z,45
2017-03-29T15:17:46.767Z,45
2017-03-29T15:18:57.086Z,40
2017-03-29T15:20:07.776Z,40
2017-03-29T15:21:18.090Z,30
2017-03-29T15:22:28.416Z,40
2017-03-29T15:23:38.412Z,45
2017-03-29T15:24:48.740Z,50
2017-03-29T15:25:59.131Z,45
2017-03-29T15:27:09.129Z,45
2017-03-29T15:28:19.441Z,40
2017-03-29T15:29:29.779Z,40
2017-03-29T15:30:40.082Z,45
2017-03-29T15:31:50.432Z,30
2017-03-29T15:33:00.740Z,45
2017-03-29T15:34:11.062Z,50
2017-03-29T15:35:21.365Z,45
2017-03-29T15:36:31.057Z,30
2017-03-29T15:37:41.422Z,35
2017-03-29T15:38:51.401Z,40
2017-03-29T15:40:01.400Z,30
2017-03-29T15:41:11.709Z,30
2017-03-29T15:42:22.028Z,35
2017-03-29T15:43:32.689Z,20
2017-03-29T15:44:43.023Z,20
2017-03-29T15:45:53.353Z,20
2017-03-29T15:47:03.359Z,20
2017-03-29T15:48:13.664Z,20
2017-03-29T15:49:24.040Z,25
2017-03-29T15:50:34.374Z,20
2017-03-29T15:51:44.385Z,15
2017-03-29T15:52:54.071Z,20
2017-03-29T15:54:04.094Z,25
2017-03-29T15:55:14.748Z,25
2017-03-29T15:56:25.063Z,25
2017-03-29T15:57:35.392Z,30
2017-03-29T15:58:45.706Z,35
2017-03-29T15:59:56.039Z,25
2017-03-29T16:01:06.420Z,25
2017-03-29T16:02:16.783Z,30
2017-03-29T16:03:27.102Z,40
2017-03-29T16:04:37.437Z,40
2017-03-29T16:05:47.436Z,35
2017-03-29T16:06:58.092Z,30
2017-03-29T16:08:08.100Z,35
2017-03-29T16:09:18.457Z,35
2017-03-29T16:10:28.485Z,30
2017-03-29T16:11:38.822Z,30
2017-03-29T16:12:49.483Z,30
2017-03-29T16:13:59.486Z,20
2017-03-29T16:15:09.497Z,30
2017-03-29T16:16:19.805Z,30
2017-03-29T16:17:29.827Z,30
2017-03-29T16:18:40.554Z,25
2017-03-29T16:19:50.892Z,20
2017-03-29T16:21:01.225Z,20
2017-03-29T16:22:11.210Z,20
2017-03-29T16:23:21.212Z,20
2017-03-29T16:24:31.284Z,20
2017-03-29T16:25:41.636Z,15
2017-03-29T16:26:51.935Z,20
2017-03-29T16:28:02.236Z,15
2017-03-29T16:29:12.235Z,10
2017-03-29T16:30:21.968Z,10
2017-03-29T16:31:32.273Z,10
2017-03-29T16:32:42.295Z,5
2017-03-29T16:33:52.603Z,5
2017-03-29T16:35:02.903Z,5
2017-03-29T16:36:13.595Z,10
2017-03-29T16:37:23.891Z,5
2017-03-29T16:38:34.227Z,5
2017-03-29T16:39:43.907Z,5
2017-03-29T16:40:54.260Z,10
2017-03-29T16:42:04.912Z,10
2017-03-29T16:43:14.932Z,5
2017-03-29T16:44:24.327Z,5
2017-03-29T16:45:34.355Z,5
2017-03-29T16:46:44.662Z,5
2017-03-29T16:47:55.042Z,10
2017-03-29T16:49:05.397Z,5
2017-03-29T16:50:15.395Z,5
2017-03-29T16:51:25.871Z,5
2017-03-29T16:52:35.863Z,5
2017-03-29T16:53:46.212Z,5
2017-03-29T16:54:56.192Z,5